createdAt,value
2022-08-28T00:01:53.853Z,17.46
2022-08-28T00:04:24.226Z,17.42
2022-08-28T00:06:54.463Z,17.39
2022-08-28T00:09:24.662Z,17.31
2022-08-28T00:11:55.173Z,17.26
2022-08-28T00:14:27.094Z,17.18
2022-08-28T00:16:59.004Z,17.16
2022-08-28T00:19:29.272Z,17.16
2022-08-28T00:21:59.590Z,17.11
2022-08-28T00:24:30.208Z,17.05
2022-08-28T00:27:18.429Z,17.01
2022-08-28T00:29:49.233Z,17.01
2022-08-28T00:32:23.751Z,17.10
2022-08-28T00:34:53.843Z,17.13
2022-08-28T00:37:24.714Z,17.17
2022-08-28T00:39:55.086Z,17.18
2022-08-28T00:42:26.791Z,17.24
2022-08-28T00:44:56.763Z,17.25
2022-08-28T00:47:28.703Z,17.12
2022-08-28T00:49:59.441Z,17.03
2022-08-28T00:52:29.412Z,16.95
2022-08-28T00:55:04.267Z,16.95
2022-08-28T00:57:37.743Z,16.83
2022-08-28T01:00:10.655Z,16.74
2022-08-28T01:02:42.724Z,16.66
2022-08-28T01:05:14.822Z,16.70
2022-08-28T01:07:45.659Z,16.77
2022-08-28T01:10:20.009Z,16.82
2022-08-28T01:12:51.889Z,16.79
2022-08-28T01:15:25.313Z,16.79
2022-08-28T01:18:05.967Z,16.69
2022-08-28T01:20:42.817Z,16.69
2022-08-28T01:23:21.315Z,16.69
2022-08-28T01:25:53.787Z,16.63
2022-08-28T01:28:24.214Z,16.56
2022-08-28T01:30:55.497Z,16.50
2022-08-28T01:33:28.234Z,16.62
2022-08-28T01:35:59.618Z,16.63
2022-08-28T01:38:29.976Z,16.64
2022-08-28T01:41:01.605Z,16.63
2022-08-28T01:43:32.027Z,16.57
2022-08-28T01:46:05.007Z,16.59
2022-08-28T01:48:37.406Z,16.53
2022-08-28T01:51:08.162Z,16.42
2022-08-28T01:53:39.074Z,16.36
2022-08-28T01:56:16.537Z,16.21
2022-08-28T01:58:48.354Z,16.28
2022-08-28T02:01:22.589Z,16.26
2022-08-28T02:03:53.340Z,16.24
2022-08-28T02:06:23.541Z,16.19
2022-08-28T02:08:55.815Z,16.16
2022-08-28T02:11:29.731Z,16.13
2022-08-28T02:14:00.618Z,16.17
2022-08-28T02:16:31.729Z,16.17
2022-08-28T02:19:03.847Z,16.14
2022-08-28T02:21:35.830Z,16.09
2022-08-28T02:24:06.093Z,16.06
2022-08-28T02:26:37.993Z,16.09
2022-08-28T02:29:08.494Z,16.08
2022-08-28T02:31:38.859Z,16.07
2022-08-28T02:34:11.708Z,16.09
2022-08-28T02:36:43.619Z,16.18
2022-08-28T02:39:13.751Z,16.21
2022-08-28T02:41:45.579Z,16.19
2022-08-28T02:44:15.550Z,16.24
2022-08-28T02:46:45.876Z,16.23
2022-08-28T02:49:15.920Z,16.18
2022-08-28T02:51:46.389Z,16.16
2022-08-28T02:54:16.334Z,16.13
2022-08-28T02:56:50.354Z,16.10
2022-08-28T02:59:20.366Z,16.08
2022-08-28T03:01:50.786Z,16.14
2022-08-28T03:04:20.951Z,16.18
2022-08-28T03:06:51.421Z,16.13
2022-08-28T03:09:21.391Z,16.09
2022-08-28T03:11:53.821Z,16.09
2022-08-28T03:14:24.668Z,15.96
2022-08-28T03:16:54.955Z,15.93
2022-08-28T03:19:26.029Z,15.87
2022-08-28T03:21:57.227Z,15.87
2022-08-28T03:24:26.369Z,15.77
2022-08-28T03:26:58.649Z,15.67
2022-08-28T03:29:29.036Z,15.62
2022-08-28T03:31:59.834Z,15.65
2022-08-28T03:34:30.324Z,15.71
2022-08-28T03:37:01.584Z,15.65
2022-08-28T03:39:32.094Z,15.63
2022-08-28T03:42:03.939Z,15.69
2022-08-28T03:44:34.957Z,15.70
2022-08-28T03:47:05.358Z,15.72
2022-08-28T03:49:35.910Z,15.76
2022-08-28T03:52:06.442Z,15.80
2022-08-28T03:54:36.744Z,15.81
2022-08-28T03:57:08.279Z,15.73
2022-08-28T03:59:38.726Z,15.74
2022-08-28T04:02:08.802Z,15.70
2022-08-28T04:04:39.593Z,15.63
2022-08-28T04:07:09.635Z,15.62
2022-08-28T04:09:40.004Z,15.60
2022-08-28T04:12:12.070Z,15.54
2022-08-28T04:14:42.352Z,15.52
2022-08-28T04:17:12.475Z,15.51
2022-08-28T04:19:43.673Z,15.56
2022-08-28T04:22:13.638Z,15.63
2022-08-28T04:24:43.729Z,15.68
2022-08-28T04:27:15.387Z,15.78
2022-08-28T04:29:45.884Z,15.82
2022-08-28T04:32:16.145Z,15.85
2022-08-28T04:34:46.638Z,15.81
2022-08-28T04:37:17.009Z,15.74
2022-08-28T04:39:47.258Z,15.72
2022-08-28T04:42:19.144Z,15.73
2022-08-28T04:44:49.601Z,15.66
2022-08-28T04:47:20.271Z,15.69
2022-08-28T04:49:50.678Z,15.76
2022-08-28T04:52:20.866Z,15.81
2022-08-28T04:54:51.466Z,15.86
2022-08-28T04:57:23.078Z,16.00
2022-08-28T04:59:53.503Z,16.13
2022-08-28T05:02:23.636Z,16.16
2022-08-28T05:04:54.183Z,16.16
2022-08-28T05:07:24.174Z,16.21
2022-08-28T05:09:55.525Z,16.29
2022-08-28T05:12:27.357Z,16.30
2022-08-28T05:14:57.647Z,16.37
2022-08-28T05:17:28.025Z,16.49
2022-08-28T05:20:02.622Z,16.63
2022-08-28T05:22:34.165Z,16.75
2022-08-28T05:25:04.335Z,16.85
2022-08-28T05:27:38.442Z,17.04
2022-08-28T05:30:10.964Z,17.18
2022-08-28T05:32:43.368Z,17.31
2022-08-28T05:35:14.215Z,17.52
2022-08-28T05:37:44.665Z,17.62
2022-08-28T05:40:15.363Z,17.79
2022-08-28T05:42:47.936Z,17.80
2022-08-28T05:45:18.198Z,17.86
2022-08-28T05:47:48.512Z,18.00
2022-08-28T05:50:18.531Z,18.12
2022-08-28T05:52:48.725Z,18.23
2022-08-28T05:55:19.367Z,18.42
2022-08-28T05:57:50.901Z,18.57
2022-08-28T06:00:21.439Z,18.76
2022-08-28T06:02:51.675Z,18.90
2022-08-28T06:05:23.045Z,19.06
2022-08-28T06:07:53.107Z,19.24
2022-08-28T06:10:23.295Z,19.61
2022-08-28T06:12:55.714Z,19.78
2022-08-28T06:15:27.295Z,19.91
2022-08-28T06:17:57.918Z,20.13
2022-08-28T06:20:28.079Z,20.53
2022-08-28T06:22:58.959Z,20.81
2022-08-28T06:25:29.108Z,21.13
2022-08-28T06:28:00.877Z,21.55
2022-08-28T06:30:31.309Z,21.89
2022-08-28T06:33:01.586Z,22.11
2022-08-28T06:35:32.329Z,22.27
2022-08-28T06:38:03.903Z,22.76
2022-08-28T06:40:34.199Z,23.22
2022-08-28T06:43:06.226Z,23.45
2022-08-28T06:45:37.131Z,23.50
2022-08-28T06:48:07.905Z,23.88
2022-08-28T06:50:41.636Z,24.26
2022-08-28T06:53:13.417Z,24.40
2022-08-28T06:55:44.144Z,24.67
2022-08-28T06:58:15.963Z,24.24
2022-08-28T07:00:46.100Z,24.70
2022-08-28T07:03:17.727Z,25.05
2022-08-28T07:05:47.872Z,25.31
2022-08-28T07:08:18.358Z,25.33
2022-08-28T07:10:49.262Z,25.46
2022-08-28T07:13:21.267Z,25.01
2022-08-28T07:15:52.102Z,24.97
2022-08-28T07:18:22.425Z,24.74
2022-08-28T07:20:58.998Z,25.01
2022-08-28T07:23:31.491Z,25.24
2022-08-28T07:26:06.065Z,24.88
2022-08-28T07:28:39.575Z,24.85
2022-08-28T07:31:12.178Z,25.47
2022-08-28T07:33:44.439Z,25.82
2022-08-28T07:36:29.006Z,26.10
2022-08-28T07:39:02.337Z,26.38
2022-08-28T07:41:37.758Z,26.34
2022-08-28T07:44:28.706Z,26.09
2022-08-28T07:47:01.953Z,25.97
2022-08-28T07:49:34.905Z,26.03
2022-08-28T07:52:05.888Z,26.34
2022-08-28T07:54:37.486Z,26.61
2022-08-28T07:57:08.974Z,26.86
2022-08-28T07:59:43.177Z,26.96
2022-08-28T08:02:21.423Z,27.08
2022-08-28T08:04:55.117Z,27.11
2022-08-28T08:07:25.238Z,27.31
2022-08-28T08:09:59.408Z,26.60
2022-08-28T08:12:30.901Z,26.61
2022-08-28T08:15:02.809Z,27.10
2022-08-28T08:17:36.845Z,27.28
2022-08-28T08:20:08.969Z,27.50
2022-08-28T08:22:39.477Z,27.97
2022-08-28T08:25:10.678Z,27.88
2022-08-28T08:27:43.022Z,28.02
2022-08-28T08:30:14.709Z,27.84
2022-08-28T08:32:47.413Z,28.43
2022-08-28T08:35:18.737Z,28.42
2022-08-28T08:37:50.627Z,28.44
2022-08-28T08:40:22.006Z,28.46
2022-08-28T08:42:55.926Z,29.05
2022-08-28T08:45:28.460Z,29.21
2022-08-28T08:48:03.768Z,28.66
2022-08-28T08:50:41.533Z,29.09
2022-08-28T08:53:31.031Z,29.17
2022-08-28T08:56:03.656Z,28.83
2022-08-28T08:58:38.931Z,29.09
2022-08-28T09:01:18.849Z,30.08
2022-08-28T09:03:59.621Z,29.81
2022-08-28T09:06:43.050Z,29.78
2022-08-28T09:09:19.859Z,29.38
2022-08-28T09:11:57.507Z,30.06
2022-08-28T09:14:38.494Z,30.89
2022-08-28T09:17:15.144Z,30.80
2022-08-28T09:19:46.760Z,30.57
2022-08-28T09:22:17.555Z,30.64
2022-08-28T09:24:47.437Z,30.07
2022-08-28T09:27:28.876Z,30.60
2022-08-28T09:30:07.410Z,30.94
2022-08-28T09:32:41.847Z,30.73
2022-08-28T09:35:19.304Z,30.40
2022-08-28T09:37:49.756Z,30.59
2022-08-28T09:40:26.601Z,30.44
2022-08-28T09:43:21.436Z,31.40
2022-08-28T09:45:59.791Z,31.11
2022-08-28T09:48:37.195Z,30.49
2022-08-28T09:51:11.205Z,30.75
2022-08-28T09:54:01.661Z,30.94
2022-08-28T09:56:34.578Z,31.47
2022-08-28T09:59:09.259Z,31.26
2022-08-28T10:01:50.200Z,31.46
2022-08-28T10:04:44.666Z,31.70
2022-08-28T10:07:25.027Z,30.90
2022-08-28T10:10:17.333Z,31.17
2022-08-28T10:13:02.443Z,32.23
2022-08-28T10:15:55.754Z,32.03
2022-08-28T10:18:39.498Z,32.03
2022-08-28T10:21:19.167Z,31.55
2022-08-28T10:24:07.549Z,30.68
2022-08-28T10:26:45.219Z,31.00
2022-08-28T10:29:36.598Z,30.74
2022-08-28T10:32:22.799Z,30.37
2022-08-28T10:35:05.320Z,30.41
2022-08-28T10:37:48.359Z,30.25
2022-08-28T10:40:26.148Z,30.25
2022-08-28T10:43:02.309Z,30.33
2022-08-28T10:45:34.688Z,30.19
2022-08-28T10:48:12.051Z,29.88
2022-08-28T10:50:45.597Z,30.02
2022-08-28T10:53:19.732Z,29.97
2022-08-28T10:56:00.407Z,30.02
2022-08-28T10:58:32.280Z,30.23
2022-08-28T11:01:07.800Z,30.12
2022-08-28T11:03:46.239Z,29.90
2022-08-28T11:06:24.819Z,29.95
2022-08-28T11:08:58.579Z,29.92
2022-08-28T11:11:46.917Z,29.97
2022-08-28T11:14:27.230Z,30.01
2022-08-28T11:17:00.264Z,29.97
2022-08-28T11:20:08.319Z,30.08
2022-08-28T11:22:43.125Z,30.14
2022-08-28T11:25:26.617Z,30.04
2022-08-28T11:28:41.438Z,29.70
2022-08-28T11:31:32.241Z,29.59
2022-08-28T11:34:03.339Z,29.70
2022-08-28T11:37:02.989Z,29.79
2022-08-28T11:39:33.118Z,29.90
2022-08-28T11:42:24.238Z,29.98
2022-08-28T11:44:56.558Z,30.15
2022-08-28T11:47:52.589Z,30.44
2022-08-28T11:50:29.538Z,30.22
2022-08-28T11:53:27.738Z,30.51
2022-08-28T11:56:31.815Z,30.39
2022-08-28T11:59:25.669Z,30.69
2022-08-28T12:02:52.084Z,30.22
2022-08-28T12:05:47.289Z,30.01
2022-08-28T12:09:05.489Z,29.86
2022-08-28T12:11:56.126Z,29.48
2022-08-28T12:15:07.934Z,29.20
2022-08-28T12:17:55.441Z,28.75
2022-08-28T12:21:00.601Z,28.77
2022-08-28T12:23:39.160Z,28.47
2022-08-28T12:26:17.461Z,28.56
2022-08-28T12:28:50.740Z,28.51
2022-08-28T12:32:09.239Z,28.80
2022-08-28T12:34:46.580Z,28.35
2022-08-28T12:37:51.370Z,28.41
2022-08-28T12:40:31.573Z,28.17
2022-08-28T12:43:08.243Z,28.02
2022-08-28T12:45:46.447Z,27.75
2022-08-28T12:48:27.057Z,27.37
2022-08-28T12:51:06.679Z,27.24
2022-08-28T12:54:04.308Z,27.30
2022-08-28T12:56:40.125Z,26.98
2022-08-28T12:59:29.076Z,27.03
2022-08-28T13:02:04.711Z,26.74
2022-08-28T13:04:38.610Z,26.52
2022-08-28T13:07:16.642Z,26.39
2022-08-28T13:09:54.450Z,26.09
2022-08-28T13:12:37.870Z,26.04
2022-08-28T13:16:02.155Z,25.87
2022-08-28T13:18:43.089Z,25.71
2022-08-28T13:21:34.359Z,25.84
2022-08-28T13:24:43.346Z,25.85
2022-08-28T13:27:28.569Z,25.83
2022-08-28T13:30:06.429Z,25.72
2022-08-28T13:32:40.617Z,25.70
2022-08-28T13:35:17.080Z,25.71
2022-08-28T13:37:51.418Z,25.64
2022-08-28T13:40:55.783Z,25.56
2022-08-28T13:43:17.281Z,25.36
2022-08-28T13:45:49.643Z,25.22
2022-08-28T13:48:22.881Z,25.32
2022-08-28T13:50:58.537Z,25.20
2022-08-28T13:53:29.430Z,25.27
2022-08-28T13:56:03.760Z,25.34
2022-08-28T13:58:34.176Z,25.47
2022-08-28T14:01:07.695Z,25.28
2022-08-28T14:03:38.895Z,25.27
2022-08-28T14:06:13.299Z,25.30
2022-08-28T14:08:45.723Z,25.02
2022-08-28T14:11:18.119Z,24.87
2022-08-28T14:13:55.541Z,24.75
2022-08-28T14:16:30.977Z,24.66
2022-08-28T14:19:07.172Z,24.59
2022-08-28T14:21:45.773Z,24.78
2022-08-28T14:24:25.209Z,24.92
2022-08-28T14:27:03.808Z,24.93
2022-08-28T14:29:35.901Z,25.07
2022-08-28T14:32:06.834Z,25.12
2022-08-28T14:34:38.522Z,25.17
2022-08-28T14:37:14.524Z,25.23
2022-08-28T14:39:48.298Z,25.43
2022-08-28T14:42:20.177Z,25.28
2022-08-28T14:44:50.368Z,25.22
2022-08-28T14:47:21.105Z,25.38
2022-08-28T14:49:51.208Z,25.26
2022-08-28T14:52:22.804Z,25.35
2022-08-28T14:54:53.031Z,25.29
2022-08-28T14:57:24.927Z,25.33
2022-08-28T14:59:54.978Z,25.41
2022-08-28T15:02:25.369Z,25.40
2022-08-28T15:04:55.620Z,25.31
2022-08-28T15:07:25.879Z,25.14
2022-08-28T15:09:56.008Z,25.11
2022-08-28T15:12:27.904Z,25.02
2022-08-28T15:14:58.009Z,24.99
2022-08-28T15:17:33.791Z,24.81
2022-08-28T15:20:06.299Z,24.77
2022-08-28T15:22:37.079Z,24.62
2022-08-28T15:25:08.559Z,24.60
2022-08-28T15:27:40.654Z,24.48
2022-08-28T15:30:11.819Z,24.27
2022-08-28T15:32:44.957Z,24.24
2022-08-28T15:35:15.696Z,24.30
2022-08-28T15:37:46.076Z,24.22
2022-08-28T15:40:33.412Z,24.22
2022-08-28T15:43:05.725Z,24.19
2022-08-28T15:45:39.454Z,24.26
2022-08-28T15:48:12.308Z,24.20
2022-08-28T15:50:43.071Z,24.14
2022-08-28T15:53:16.878Z,24.11
2022-08-28T15:55:48.296Z,24.06
2022-08-28T15:58:20.828Z,24.07
2022-08-28T16:00:51.222Z,24.04
2022-08-28T16:03:21.618Z,23.99
2022-08-28T16:05:51.675Z,23.64
2022-08-28T16:08:22.285Z,23.97
2022-08-28T16:10:53.377Z,24.15
2022-08-28T16:13:25.572Z,24.16
2022-08-28T16:15:56.033Z,23.97
2022-08-28T16:18:26.766Z,23.95
2022-08-28T16:20:58.069Z,23.81
2022-08-28T16:23:31.255Z,23.72
2022-08-28T16:26:02.214Z,23.77
2022-08-28T16:28:35.294Z,23.69
2022-08-28T16:31:18.948Z,23.63
2022-08-28T16:33:50.060Z,23.48
2022-08-28T16:36:21.808Z,23.39
2022-08-28T16:39:00.460Z,23.40
2022-08-28T16:41:34.265Z,23.45
2022-08-28T16:44:06.453Z,23.32
2022-08-28T16:46:36.930Z,23.19
2022-08-28T16:49:07.292Z,23.16
2022-08-28T16:51:37.285Z,23.09
2022-08-28T16:54:08.285Z,22.97
2022-08-28T16:56:38.664Z,22.94
2022-08-28T16:59:10.744Z,22.84
2022-08-28T17:01:42.878Z,22.82
2022-08-28T17:04:13.785Z,22.87
2022-08-28T17:06:45.834Z,22.90
2022-08-28T17:09:16.287Z,22.90
2022-08-28T17:11:46.724Z,22.69
2022-08-28T17:14:24.336Z,22.59
2022-08-28T17:16:55.165Z,22.54
2022-08-28T17:19:25.506Z,22.38
2022-08-28T17:22:12.804Z,22.33
2022-08-28T17:24:42.964Z,22.15
2022-08-28T17:27:14.727Z,22.03
2022-08-28T17:29:54.297Z,21.97
2022-08-28T17:32:24.730Z,21.82
2022-08-28T17:34:54.941Z,21.69
2022-08-28T17:37:25.225Z,21.62
2022-08-28T17:39:55.728Z,21.57
2022-08-28T17:42:29.007Z,21.46
2022-08-28T17:45:04.143Z,21.45
2022-08-28T17:47:41.705Z,21.31
2022-08-28T17:50:20.046Z,21.31
2022-08-28T17:52:53.734Z,21.32
2022-08-28T17:55:27.844Z,21.20
2022-08-28T17:58:02.154Z,21.13
2022-08-28T18:00:38.041Z,20.98
2022-08-28T18:03:12.149Z,20.96
2022-08-28T18:05:45.646Z,20.92
2022-08-28T18:08:19.781Z,20.95
2022-08-28T18:10:51.056Z,20.85
2022-08-28T18:13:21.167Z,20.85
2022-08-28T18:15:56.985Z,20.78
2022-08-28T18:18:32.325Z,20.71
2022-08-28T18:21:06.950Z,20.72
2022-08-28T18:23:37.225Z,20.69
2022-08-28T18:26:07.535Z,20.64
2022-08-28T18:28:38.824Z,20.65
2022-08-28T18:31:10.923Z,20.54
2022-08-28T18:33:49.675Z,20.51
2022-08-28T18:36:21.591Z,20.52
2022-08-28T18:38:55.466Z,20.56
2022-08-28T18:41:34.531Z,20.44
2022-08-28T18:44:20.151Z,20.41
2022-08-28T18:46:58.256Z,20.38
2022-08-28T18:49:31.715Z,20.30
2022-08-28T18:52:03.607Z,20.33
2022-08-28T18:54:36.089Z,20.35
2022-08-28T18:57:11.625Z,20.37
2022-08-28T18:59:43.575Z,20.40
2022-08-28T19:02:18.773Z,20.31
2022-08-28T19:04:50.315Z,20.26
2022-08-28T19:07:20.557Z,20.26
2022-08-28T19:09:53.902Z,20.32
2022-08-28T19:12:28.517Z,20.30
2022-08-28T19:15:00.969Z,20.25
2022-08-28T19:17:36.143Z,20.21
2022-08-28T19:20:10.412Z,20.19
2022-08-28T19:22:41.085Z,20.19
2022-08-28T19:25:25.739Z,20.16
2022-08-28T19:28:01.797Z,20.14
2022-08-28T19:30:36.398Z,20.08
2022-08-28T19:33:15.155Z,20.12
2022-08-28T19:35:46.038Z,20.05
2022-08-28T19:38:16.465Z,20.06
2022-08-28T19:40:47.706Z,20.04
2022-08-28T19:43:20.579Z,20.07
2022-08-28T19:45:54.465Z,19.91
2022-08-28T19:48:27.073Z,19.88
2022-08-28T19:51:06.439Z,19.88
2022-08-28T19:53:56.148Z,19.87
2022-08-28T19:56:30.422Z,19.80
2022-08-28T19:59:04.830Z,19.80
2022-08-28T20:01:41.724Z,19.75
2022-08-28T20:04:20.115Z,19.68
2022-08-28T20:06:54.007Z,19.64
2022-08-28T20:09:27.338Z,19.63
2022-08-28T20:11:58.247Z,19.67
2022-08-28T20:14:31.616Z,19.66
2022-08-28T20:17:03.157Z,19.59
2022-08-28T20:19:34.906Z,19.60
2022-08-28T20:22:05.586Z,19.55
2022-08-28T20:24:36.415Z,19.56
2022-08-28T20:27:07.250Z,19.54
2022-08-28T20:29:39.406Z,19.55
2022-08-28T20:32:10.386Z,19.54
2022-08-28T20:34:44.486Z,19.54
2022-08-28T20:37:17.016Z,19.44
2022-08-28T20:39:48.566Z,19.43
2022-08-28T20:42:20.394Z,19.42
2022-08-28T20:44:51.917Z,19.42
2022-08-28T20:47:24.195Z,19.38
2022-08-28T20:49:57.955Z,19.39
2022-08-28T20:52:30.355Z,19.38
2022-08-28T20:55:00.846Z,19.39
2022-08-28T20:57:34.394Z,19.38
2022-08-28T21:00:08.146Z,19.38
2022-08-28T21:02:39.395Z,19.38
2022-08-28T21:05:11.558Z,19.39
2022-08-28T21:07:41.684Z,19.40
2022-08-28T21:10:12.075Z,19.40
2022-08-28T21:12:42.376Z,19.35
2022-08-28T21:15:14.246Z,19.30
2022-08-28T21:17:44.724Z,19.39
2022-08-28T21:20:17.074Z,19.39
2022-08-28T21:22:47.556Z,19.36
2022-08-28T21:25:18.384Z,19.27
2022-08-28T21:27:50.763Z,19.25
2022-08-28T21:30:23.546Z,19.26
2022-08-28T21:32:59.896Z,19.28
2022-08-28T21:35:31.984Z,19.26
2022-08-28T21:38:02.434Z,19.27
2022-08-28T21:40:32.625Z,19.28
2022-08-28T21:43:03.005Z,19.33
2022-08-28T21:45:33.106Z,19.38
2022-08-28T21:48:03.204Z,19.37
2022-08-28T21:50:35.176Z,19.39
2022-08-28T21:53:05.503Z,19.39
2022-08-28T21:55:35.814Z,19.42
2022-08-28T21:58:05.874Z,19.43
2022-08-28T22:00:36.204Z,19.41
2022-08-28T22:03:06.480Z,19.44
2022-08-28T22:05:39.505Z,19.50
2022-08-28T22:08:09.861Z,19.53
2022-08-28T22:10:40.821Z,19.54
2022-08-28T22:13:12.346Z,19.55
2022-08-28T22:15:44.367Z,19.57
2022-08-28T22:18:16.013Z,19.58
2022-08-28T22:21:18.127Z,19.56
2022-08-28T22:23:49.187Z,19.54
2022-08-28T22:26:20.095Z,19.53
2022-08-28T22:28:50.136Z,19.53
2022-08-28T22:31:20.977Z,19.49
2022-08-28T22:33:51.405Z,19.49
2022-08-28T22:36:23.677Z,19.28
2022-08-28T22:39:00.267Z,19.48
2022-08-28T22:41:30.847Z,19.39
2022-08-28T22:44:01.033Z,19.34
2022-08-28T22:46:31.375Z,19.33
2022-08-28T22:49:01.528Z,19.31
2022-08-28T22:51:34.591Z,19.31
2022-08-28T22:54:05.347Z,19.27
2022-08-28T22:56:36.514Z,19.25
2022-08-28T22:59:06.797Z,19.25
2022-08-28T23:01:37.179Z,19.24
2022-08-28T23:04:07.659Z,19.26
2022-08-28T23:06:40.605Z,19.20
2022-08-28T23:09:11.381Z,19.18
2022-08-28T23:11:41.705Z,19.25
2022-08-28T23:14:11.968Z,19.23
2022-08-28T23:16:42.342Z,19.22
2022-08-28T23:19:13.759Z,19.17
2022-08-28T23:21:45.507Z,19.17
2022-08-28T23:24:17.457Z,19.11
2022-08-28T23:26:48.086Z,19.14
2022-08-28T23:29:18.397Z,19.09
2022-08-28T23:31:48.481Z,18.85
2022-08-28T23:34:18.977Z,19.14
2022-08-28T23:36:50.678Z,19.15
2022-08-28T23:39:21.322Z,19.10
2022-08-28T23:41:53.069Z,19.04
2022-08-28T23:44:23.460Z,19.04
2022-08-28T23:46:53.576Z,19.03
2022-08-28T23:49:26.924Z,18.98
2022-08-28T23:51:58.647Z,18.96
2022-08-28T23:54:30.107Z,18.90
2022-08-28T23:57:00.087Z,18.82
2022-08-28T23:59:30.127Z,18.81
